Time;durP1;ratioP1;P1;durP2;ratioP2;P2;SDS_P1;SDS_P2;PMS_P1;PMS_P2;Temp;Humidity;BMP_temperature;BMP_pressure;BME280_temperature;BME280_humidity;BME280_pressure;Samples;Min_cycle;Max_cycle;Signal;HPM_P1;HPM_P2
2023/01/30 00:00:51;;;;;;;87.60;23.25;;;;;;;;;;5074424;28;20212;-68
2023/01/30 00:03:18;;;;;;;97.35;24.42;;;;;;;;;;5074909;28;20252;-67
2023/01/30 00:05:45;;;;;;;88.55;22.75;;;;;;;;;;5074866;28;20210;-68
2023/01/30 00:08:12;;;;;;;94.32;24.20;;;;;;;;;;5075187;28;20670;-67
2023/01/30 00:10:39;;;;;;;89.80;23.00;;;;;;;;;;5074218;28;20225;-67
2023/01/30 00:13:07;;;;;;;85.85;21.80;;;;;;;;;;5074768;28;20225;-67
2023/01/30 00:15:34;;;;;;;86.50;23.98;;;;;;;;;;5074852;28;20288;-67
2023/01/30 00:18:02;;;;;;;86.65;22.50;;;;;;;;;;5075097;28;20216;-68
2023/01/30 00:20:29;;;;;;;89.15;23.17;;;;;;;;;;5073791;28;20212;-67
2023/01/30 00:22:57;;;;;;;90.80;23.50;;;;;;;;;;5074675;28;20231;-67
2023/01/30 00:25:24;;;;;;;87.53;24.33;;;;;;;;;;5074466;28;20221;-67
2023/01/30 00:27:51;;;;;;;87.25;24.55;;;;;;;;;;5074644;28;20216;-68
2023/01/30 00:30:20;;;;;;;92.88;25.20;;;;;;;;;;5073755;28;20216;-67
2023/01/30 00:32:47;;;;;;;101.13;26.95;;;;;;;;;;5074280;28;20208;-68
2023/01/30 00:35:14;;;;;;;94.70;25.40;;;;;;;;;;5074238;28;20209;-67
2023/01/30 00:37:41;;;;;;;91.45;25.95;;;;;;;;;;5074529;28;20205;-67
2023/01/30 00:40:09;;;;;;;90.82;24.40;;;;;;;;;;5073916;28;20206;-67
2023/01/30 00:48:07;;;;;;;89.63;23.85;;;;;;;;;;5074098;28;20223;-67
2023/01/30 00:50:42;;;;;;;88.88;23.17;;;;;;;;;;5073486;28;20724;-68
2023/01/30 00:53:10;;;;;;;85.95;21.85;;;;;;;;;;5074150;28;20274;-67
2023/01/30 00:55:37;;;;;;;84.30;21.95;;;;;;;;;;5074447;28;20211;-67
2023/01/30 00:58:04;;;;;;;85.38;21.08;;;;;;;;;;5073799;28;20366;-68
2023/01/30 01:00:32;;;;;;;90.10;22.55;;;;;;;;;;5073475;28;20203;-67
2023/01/30 01:03:00;;;;;;;86.15;22.15;;;;;;;;;;5073894;28;20321;-67
2023/01/30 01:05:27;;;;;;;95.13;25.90;;;;;;;;;;5073361;28;20208;-68
2023/01/30 01:07:54;;;;;;;88.18;23.20;;;;;;;;;;5073201;28;20743;-67
2023/01/30 01:10:22;;;;;;;93.95;24.08;;;;;;;;;;5072897;28;20209;-67
2023/01/30 01:12:52;;;;;;;92.75;25.40;;;;;;;;;;5073507;28;20209;-67
2023/01/30 01:15:19;;;;;;;93.88;24.48;;;;;;;;;;5073527;28;20246;-67
2023/01/30 01:17:48;;;;;;;91.57;24.80;;;;;;;;;;5073616;28;20205;-68
2023/01/30 01:20:15;;;;;;;87.72;23.63;;;;;;;;;;5072804;28;20216;-67
2023/01/30 01:22:42;;;;;;;86.63;22.23;;;;;;;;;;5073487;28;20202;-67
2023/01/30 01:25:10;;;;;;;86.53;21.35;;;;;;;;;;5073461;28;20213;-67
2023/01/30 01:27:37;;;;;;;105.68;32.65;;;;;;;;;;5073451;28;20206;-67
2023/01/30 01:30:04;;;;;;;94.10;29.42;;;;;;;;;;5072582;28;20211;-67
2023/01/30 01:32:31;;;;;;;89.60;25.10;;;;;;;;;;5073289;28;20316;-67
2023/01/30 01:35:00;;;;;;;92.47;24.60;;;;;;;;;;5073244;28;20209;-67
2023/01/30 01:37:27;;;;;;;91.30;26.63;;;;;;;;;;5073074;28;20201;-67
2023/01/30 01:42:39;;;;;;;90.60;24.17;;;;;;;;;;5073067;28;20208;-67
2023/01/30 01:45:14;;;;;;;91.45;25.05;;;;;;;;;;5073230;28;20554;-67
2023/01/30 01:47:43;;;;;;;91.68;25.33;;;;;;;;;;5072968;28;20719;-68
2023/01/30 01:50:13;;;;;;;87.40;24.88;;;;;;;;;;5072028;28;20201;-67
2023/01/30 01:52:40;;;;;;;91.85;24.85;;;;;;;;;;5072443;28;20228;-67
2023/01/30 01:55:08;;;;;;;85.43;21.80;;;;;;;;;;5072942;28;20201;-68
2023/01/30 01:57:38;;;;;;;90.60;26.27;;;;;;;;;;5072686;28;20209;-67
2023/01/30 02:00:10;;;;;;;89.47;24.48;;;;;;;;;;5072014;28;20208;-67
2023/01/30 02:02:37;;;;;;;82.68;22.17;;;;;;;;;;5072422;28;20201;-67
2023/01/30 02:05:05;;;;;;;88.82;22.38;;;;;;;;;;5072574;28;20208;-67
2023/01/30 02:07:37;;;;;;;86.75;22.42;;;;;;;;;;5072859;28;20204;-67
2023/01/30 02:10:05;;;;;;;90.70;24.25;;;;;;;;;;5071930;28;20209;-67
2023/01/30 02:12:33;;;;;;;93.93;26.70;;;;;;;;;;5072363;28;20232;-68
2023/01/30 02:15:01;;;;;;;95.53;27.92;;;;;;;;;;5072378;28;20205;-68
2023/01/30 02:17:28;;;;;;;87.78;24.30;;;;;;;;;;5072242;28;20201;-67
2023/01/30 02:19:57;;;;;;;101.18;28.85;;;;;;;;;;5071756;28;20205;-67
2023/01/30 02:22:36;;;;;;;100.40;30.95;;;;;;;;;;5072459;28;20203;-68
2023/01/30 02:25:25;;;;;;;90.90;26.15;;;;;;;;;;5072234;28;20213;-67
2023/01/30 02:28:04;;;;;;;93.53;24.88;;;;;;;;;;5072473;28;20211;-68
2023/01/30 02:30:59;;;;;;;93.25;24.30;;;;;;;;;;5071629;28;20209;-67
2023/01/30 02:33:30;;;;;;;88.07;21.10;;;;;;;;;;5072220;28;20552;-67
2023/01/30 02:36:04;;;;;;;86.93;20.52;;;;;;;;;;5072008;28;20213;-67
2023/01/30 02:38:39;;;;;;;82.68;20.40;;;;;;;;;;5071908;28;20215;-69
2023/01/30 02:41:12;;;;;;;82.68;21.52;;;;;;;;;;5072251;28;20230;-67
2023/01/30 02:43:43;;;;;;;86.45;21.00;;;;;;;;;;5072239;28;20232;-67
2023/01/30 02:46:12;;;;;;;85.32;20.65;;;;;;;;;;5071948;28;20205;-67
2023/01/30 02:48:41;;;;;;;85.82;22.55;;;;;;;;;;5067292;28;20211;-67
2023/01/30 02:51:12;;;;;;;85.07;20.15;;;;;;;;;;5072120;28;20271;-67
2023/01/30 02:53:39;;;;;;;85.78;20.50;;;;;;;;;;5071683;28;20724;-67
2023/01/30 02:56:07;;;;;;;80.28;18.83;;;;;;;;;;5071849;28;20201;-67
2023/01/30 02:58:37;;;;;;;83.50;21.08;;;;;;;;;;5070925;28;20209;-67
2023/01/30 03:01:17;;;;;;;79.53;18.48;;;;;;;;;;5071960;28;20212;-68
2023/01/30 03:03:52;;;;;;;89.93;22.17;;;;;;;;;;5071666;28;20712;-67
2023/01/30 03:06:27;;;;;;;89.05;22.08;;;;;;;;;;5071826;28;20209;-68
2023/01/30 03:09:00;;;;;;;85.18;21.40;;;;;;;;;;5070883;28;20220;-67
2023/01/30 03:11:31;;;;;;;83.22;21.40;;;;;;;;;;5072043;28;20229;-68
2023/01/30 03:14:03;;;;;;;86.60;20.27;;;;;;;;;;5071657;28;20231;-68
2023/01/30 03:16:33;;;;;;;83.55;18.83;;;;;;;;;;5071621;28;20213;-67
2023/01/30 03:19:00;;;;;;;81.95;20.23;;;;;;;;;;5070915;28;20204;-68
2023/01/30 03:21:27;;;;;;;81.90;19.10;;;;;;;;;;5071709;28;20219;-67
2023/01/30 03:23:54;;;;;;;84.57;19.92;;;;;;;;;;5071363;28;20232;-67
2023/01/30 03:26:24;;;;;;;80.60;18.05;;;;;;;;;;5071715;28;20579;-67
2023/01/30 03:28:52;;;;;;;83.32;18.83;;;;;;;;;;5070748;28;20201;-67
2023/01/30 03:31:19;;;;;;;81.72;18.92;;;;;;;;;;5075559;28;20252;-66
2023/01/30 03:33:47;;;;;;;80.25;18.95;;;;;;;;;;5075468;28;20228;-67
2023/01/30 03:36:15;;;;;;;79.47;17.58;;;;;;;;;;5075569;28;20594;-67
2023/01/30 03:38:42;;;;;;;80.38;18.55;;;;;;;;;;5074846;28;20205;-68
2023/01/30 03:41:09;;;;;;;84.85;17.83;;;;;;;;;;5075519;28;20205;-68
2023/01/30 03:43:36;;;;;;;80.32;18.23;;;;;;;;;;5075215;28;20721;-67
2023/01/30 03:46:03;;;;;;;80.88;17.63;;;;;;;;;;5075330;28;20224;-67
2023/01/30 03:48:30;;;;;;;78.65;17.67;;;;;;;;;;5074789;28;20638;-67
2023/01/30 03:50:59;;;;;;;80.18;18.67;;;;;;;;;;5075240;28;20194;-67
2023/01/30 03:53:26;;;;;;;78.93;17.10;;;;;;;;;;5075134;28;20237;-68
2023/01/30 03:55:53;;;;;;;86.95;20.65;;;;;;;;;;5075205;28;20201;-68
2023/01/30 03:58:21;;;;;;;81.60;19.08;;;;;;;;;;5074914;28;20209;-68
2023/01/30 04:00:48;;;;;;;82.15;18.15;;;;;;;;;;5074440;28;20232;-68
2023/01/30 04:03:15;;;;;;;76.88;16.02;;;;;;;;;;5075244;28;20263;-68
2023/01/30 04:05:42;;;;;;;86.57;17.70;;;;;;;;;;5075117;28;20200;-68
2023/01/30 04:08:11;;;;;;;80.28;17.33;;;;;;;;;;5074750;28;20679;-68
2023/01/30 04:10:38;;;;;;;78.50;17.65;;;;;;;;;;5074077;28;20208;-68
2023/01/30 04:13:05;;;;;;;79.65;16.92;;;;;;;;;;5074634;28;20256;-68
2023/01/30 04:15:33;;;;;;;76.15;17.02;;;;;;;;;;5074734;28;20207;-67
2023/01/30 04:18:00;;;;;;;80.35;16.60;;;;;;;;;;5074570;28;20205;-68
2023/01/30 04:20:27;;;;;;;81.25;17.60;;;;;;;;;;5074080;28;20207;-67
2023/01/30 04:22:55;;;;;;;75.47;15.98;;;;;;;;;;5074489;28;20221;-67
2023/01/30 04:25:23;;;;;;;72.22;14.43;;;;;;;;;;5074518;28;20213;-68
2023/01/30 04:27:50;;;;;;;72.05;12.88;;;;;;;;;;5074498;28;20205;-67
2023/01/30 04:30:18;;;;;;;74.22;14.60;;;;;;;;;;5073615;28;20212;-67
2023/01/30 04:32:45;;;;;;;70.53;12.60;;;;;;;;;;5074144;28;20224;-68
2023/01/30 04:35:12;;;;;;;77.15;14.05;;;;;;;;;;5074550;28;20203;-67
2023/01/30 04:37:39;;;;;;;75.82;12.52;;;;;;;;;;5074463;28;20521;-68
2023/01/30 04:40:07;;;;;;;71.20;12.88;;;;;;;;;;5073296;28;20213;-67
2023/01/30 04:42:35;;;;;;;70.20;12.60;;;;;;;;;;5073979;28;20205;-67
2023/01/30 04:45:02;;;;;;;71.80;13.57;;;;;;;;;;5074225;28;20571;-68
2023/01/30 04:47:29;;;;;;;69.32;11.48;;;;;;;;;;5074226;28;20206;-67
2023/01/30 04:49:56;;;;;;;69.93;12.63;;;;;;;;;;5073270;28;20209;-67
2023/01/30 04:52:23;;;;;;;70.90;12.40;;;;;;;;;;5074226;28;20225;-67
2023/01/30 04:54:50;;;;;;;68.32;12.10;;;;;;;;;;5074135;28;20224;-67
2023/01/30 04:57:17;;;;;;;71.07;13.25;;;;;;;;;;5073817;28;20205;-67
2023/01/30 04:59:46;;;;;;;70.72;11.82;;;;;;;;;;5073280;28;20231;-67
2023/01/30 05:02:13;;;;;;;67.55;11.00;;;;;;;;;;5074043;28;20197;-67
2023/01/30 05:04:40;;;;;;;71.00;12.57;;;;;;;;;;5073690;28;20717;-67
2023/01/30 05:07:07;;;;;;;70.55;12.75;;;;;;;;;;5073827;28;20207;-68
2023/01/30 05:09:34;;;;;;;69.32;11.35;;;;;;;;;;5072933;28;20205;-67
2023/01/30 05:12:01;;;;;;;69.50;11.95;;;;;;;;;;5073448;28;20724;-67
2023/01/30 05:14:28;;;;;;;70.70;12.02;;;;;;;;;;5073700;28;20328;-67
2023/01/30 05:16:57;;;;;;;69.40;11.57;;;;;;;;;;5073845;28;20219;-67
2023/01/30 05:19:24;;;;;;;67.18;9.73;;;;;;;;;;5072937;28;20205;-68
2023/01/30 05:21:51;;;;;;;69.03;11.52;;;;;;;;;;5073511;28;20201;-67
2023/01/30 05:24:18;;;;;;;69.80;9.95;;;;;;;;;;5073095;28;20232;-67
2023/01/30 05:26:45;;;;;;;67.22;10.35;;;;;;;;;;5073576;28;20202;-67
2023/01/30 05:29:12;;;;;;;68.97;10.90;;;;;;;;;;5072694;28;20212;-67
2023/01/30 05:31:39;;;;;;;67.90;12.13;;;;;;;;;;5073191;28;20207;-67
2023/01/30 05:34:11;;;;;;;67.50;12.00;;;;;;;;;;5073167;28;20255;-67
2023/01/30 05:36:38;;;;;;;66.97;10.50;;;;;;;;;;5073180;28;20206;-67
2023/01/30 05:39:05;;;;;;;68.03;10.02;;;;;;;;;;5072709;28;20213;-67
2023/01/30 05:41:32;;;;;;;68.80;12.65;;;;;;;;;;5073391;28;20206;-67
2023/01/30 05:43:59;;;;;;;68.50;11.48;;;;;;;;;;5073081;28;20228;-67
2023/01/30 05:46:26;;;;;;;66.80;9.55;;;;;;;;;;5072945;28;20209;-67
2023/01/30 05:48:53;;;;;;;67.43;10.85;;;;;;;;;;5072165;28;20209;-67
2023/01/30 05:51:22;;;;;;;69.90;11.85;;;;;;;;;;5073016;28;20205;-68
2023/01/30 05:53:50;;;;;;;68.20;10.35;;;;;;;;;;5072032;28;20231;-67
2023/01/30 05:56:17;;;;;;;69.93;10.63;;;;;;;;;;5072606;28;20215;-67
2023/01/30 05:58:45;;;;;;;68.55;10.27;;;;;;;;;;5072054;28;20206;-68
2023/01/30 06:01:13;;;;;;;69.47;10.40;;;;;;;;;;5072796;28;20205;-68
2023/01/30 06:03:40;;;;;;;67.70;11.15;;;;;;;;;;5072649;28;20397;-67
2023/01/30 06:06:07;;;;;;;67.75;10.27;;;;;;;;;;5072518;28;20207;-67
2023/01/30 06:08:36;;;;;;;65.70;9.32;;;;;;;;;;5071687;28;20212;-67
2023/01/30 06:11:03;;;;;;;66.15;9.40;;;;;;;;;;5072440;28;20209;-68
2023/01/30 06:13:30;;;;;;;68.90;11.40;;;;;;;;;;5072408;28;20237;-67
2023/01/30 06:15:57;;;;;;;70.53;11.15;;;;;;;;;;5072544;28;20209;-68
2023/01/30 06:18:24;;;;;;;66.43;9.43;;;;;;;;;;5072178;28;20201;-67
2023/01/30 06:20:52;;;;;;;67.95;11.18;;;;;;;;;;5071711;28;20208;-68
2023/01/30 06:23:20;;;;;;;68.03;10.77;;;;;;;;;;5072304;28;20592;-68
2023/01/30 06:25:49;;;;;;;65.88;9.77;;;;;;;;;;5072544;28;20683;-68
2023/01/30 06:28:17;;;;;;;66.78;10.80;;;;;;;;;;5072222;28;20210;-68
2023/01/30 06:30:44;;;;;;;66.72;10.05;;;;;;;;;;5071547;28;20201;-67
2023/01/30 06:33:11;;;;;;;67.38;10.60;;;;;;;;;;5071909;28;20233;-67
2023/01/30 06:35:38;;;;;;;68.20;12.07;;;;;;;;;;5072438;28;20209;-68
2023/01/30 06:38:08;;;;;;;66.72;10.93;;;;;;;;;;5072032;28;20216;-67
2023/01/30 06:40:35;;;;;;;67.50;10.48;;;;;;;;;;5071445;28;20591;-67
2023/01/30 06:43:04;;;;;;;67.30;10.00;;;;;;;;;;5072038;28;20221;-68
2023/01/30 06:45:31;;;;;;;69.25;10.35;;;;;;;;;;5071937;28;20209;-68
2023/01/30 06:47:58;;;;;;;66.60;10.52;;;;;;;;;;5072103;28;20209;-67
2023/01/30 06:50:26;;;;;;;66.97;11.07;;;;;;;;;;5071195;28;20209;-67
2023/01/30 06:52:54;;;;;;;69.00;11.85;;;;;;;;;;5071922;28;20230;-68
2023/01/30 06:55:22;;;;;;;71.13;10.85;;;;;;;;;;5071838;28;20296;-67
2023/01/30 06:57:49;;;;;;;67.38;10.82;;;;;;;;;;5071938;28;20219;-70
2023/01/30 07:00:19;;;;;;;66.82;10.57;;;;;;;;;;5070922;28;20218;-67
2023/01/30 07:02:46;;;;;;;67.90;10.30;;;;;;;;;;5071844;28;20205;-67
2023/01/30 07:05:13;;;;;;;67.35;10.27;;;;;;;;;;5071860;28;20206;-68
2023/01/30 07:07:40;;;;;;;68.13;10.00;;;;;;;;;;5072014;28;20203;-68
2023/01/30 07:10:08;;;;;;;67.20;9.98;;;;;;;;;;5071112;28;20597;-68
2023/01/30 07:12:36;;;;;;;68.10;10.10;;;;;;;;;;5071494;28;20261;-68
2023/01/30 07:15:03;;;;;;;66.30;9.70;;;;;;;;;;5071891;28;20207;-68
2023/01/30 07:17:31;;;;;;;66.00;10.52;;;;;;;;;;5071858;28;20205;-67
2023/01/30 07:19:58;;;;;;;66.43;10.13;;;;;;;;;;5070911;28;20211;-68
2023/01/30 07:22:25;;;;;;;72.00;10.68;;;;;;;;;;5071756;28;20206;-69
2023/01/30 07:24:52;;;;;;;65.35;9.70;;;;;;;;;;5071477;28;20233;-68
2023/01/30 07:27:20;;;;;;;67.07;10.35;;;;;;;;;;5071398;28;20585;-68
2023/01/30 07:29:47;;;;;;;70.75;11.30;;;;;;;;;;5070983;28;20211;-68
2023/01/30 07:32:14;;;;;;;75.10;11.85;;;;;;;;;;5071579;28;20213;-68
2023/01/30 07:34:43;;;;;;;66.97;10.75;;;;;;;;;;5071542;28;20227;-68
2023/01/30 07:37:10;;;;;;;67.90;9.80;;;;;;;;;;5071509;28;20308;-68
2023/01/30 07:39:37;;;;;;;67.78;9.77;;;;;;;;;;5070643;28;20206;-68
2023/01/30 07:42:05;;;;;;;67.10;11.25;;;;;;;;;;5071737;28;20232;-68
2023/01/30 07:44:32;;;;;;;68.30;10.05;;;;;;;;;;5071494;28;20217;-69
2023/01/30 07:46:59;;;;;;;66.20;9.65;;;;;;;;;;5071553;28;20220;-68
2023/01/30 07:49:27;;;;;;;67.68;9.90;;;;;;;;;;5070726;28;20212;-68
2023/01/30 07:51:55;;;;;;;65.72;10.13;;;;;;;;;;5071505;28;20585;-68
2023/01/30 07:54:22;;;;;;;69.93;10.65;;;;;;;;;;5071304;28;20232;-69
2023/01/30 07:56:49;;;;;;;69.07;9.98;;;;;;;;;;5071422;28;20689;-68
2023/01/30 07:59:16;;;;;;;68.57;9.32;;;;;;;;;;5070742;28;20204;-69
2023/01/30 08:01:43;;;;;;;66.05;9.77;;;;;;;;;;5071169;28;20203;-68
2023/01/30 08:04:11;;;;;;;67.80;10.20;;;;;;;;;;5071495;28;20217;-68
2023/01/30 08:06:38;;;;;;;64.95;9.25;;;;;;;;;;5071251;28;20208;-68
2023/01/30 08:09:07;;;;;;;69.00;11.25;;;;;;;;;;5070252;28;20207;-68
2023/01/30 08:11:34;;;;;;;67.82;9.57;;;;;;;;;;5071546;28;20209;-68
2023/01/30 08:14:02;;;;;;;74.38;10.77;;;;;;;;;;5071113;28;20255;-68
2023/01/30 08:16:30;;;;;;;67.10;10.63;;;;;;;;;;5073465;28;20698;-69
2023/01/30 08:18:58;;;;;;;66.07;10.35;;;;;;;;;;5074003;28;20661;-67
2023/01/30 08:21:25;;;;;;;68.18;10.63;;;;;;;;;;5074585;28;20206;-68
2023/01/30 08:23:52;;;;;;;68.10;10.30;;;;;;;;;;5074544;28;20253;-68
2023/01/30 08:26:20;;;;;;;69.40;11.25;;;;;;;;;;5074747;28;20211;-68
2023/01/30 08:28:47;;;;;;;67.00;10.90;;;;;;;;;;5073883;28;20229;-69
2023/01/30 08:31:16;;;;;;;68.15;10.07;;;;;;;;;;5074533;28;20211;-68
2023/01/30 08:33:43;;;;;;;70.55;11.10;;;;;;;;;;5074191;28;20225;-68
2023/01/30 08:36:10;;;;;;;68.82;10.45;;;;;;;;;;5074546;28;20204;-69
2023/01/30 08:38:37;;;;;;;65.47;9.27;;;;;;;;;;5073625;28;20203;-69
2023/01/30 08:41:06;;;;;;;68.40;9.60;;;;;;;;;;5074534;28;20215;-68
2023/01/30 08:43:34;;;;;;;66.10;9.48;;;;;;;;;;5074236;28;20225;-68
2023/01/30 08:46:02;;;;;;;69.45;10.85;;;;;;;;;;5074075;28;20209;-69
2023/01/30 08:48:29;;;;;;;67.40;9.93;;;;;;;;;;5073868;28;20679;-68
2023/01/30 08:50:57;;;;;;;66.90;10.00;;;;;;;;;;5073838;28;20210;-68
2023/01/30 08:53:24;;;;;;;66.18;10.30;;;;;;;;;;5074144;28;20232;-68
2023/01/30 08:55:52;;;;;;;67.15;10.02;;;;;;;;;;5074044;28;20203;-68
2023/01/30 08:58:19;;;;;;;67.90;9.10;;;;;;;;;;5073813;28;20211;-68
2023/01/30 09:00:48;;;;;;;65.38;8.85;;;;;;;;;;5073317;28;20212;-68
2023/01/30 09:03:15;;;;;;;66.18;9.63;;;;;;;;;;5073834;28;20231;-69
2023/01/30 09:05:42;;;;;;;66.50;10.20;;;;;;;;;;5074046;28;20204;-68
2023/01/30 09:08:10;;;;;;;64.80;8.82;;;;;;;;;;5073724;28;20215;-68
2023/01/30 09:10:37;;;;;;;65.60;9.35;;;;;;;;;;5073180;28;20461;-69
2023/01/30 09:13:04;;;;;;;64.88;9.30;;;;;;;;;;5073466;28;20235;-68
2023/01/30 09:15:32;;;;;;;64.72;8.43;;;;;;;;;;5072925;28;20627;-69
2023/01/30 09:18:00;;;;;;;65.35;10.18;;;;;;;;;;5070277;28;20215;-68
2023/01/30 09:20:27;;;;;;;65.55;8.77;;;;;;;;;;5072709;28;20205;-68
2023/01/30 09:22:54;;;;;;;66.57;9.50;;;;;;;;;;5073014;28;20238;-68
2023/01/30 09:25:21;;;;;;;65.15;8.02;;;;;;;;;;5073286;28;20220;-68
2023/01/30 09:27:49;;;;;;;69.82;8.95;;;;;;;;;;5071745;28;20204;-68
2023/01/30 09:30:17;;;;;;;65.95;8.55;;;;;;;;;;5072118;28;20206;-68
2023/01/30 09:32:44;;;;;;;64.45;8.30;;;;;;;;;;5073213;28;20208;-68
2023/01/30 09:35:12;;;;;;;65.10;8.60;;;;;;;;;;5072886;28;20741;-68
2023/01/30 09:37:39;;;;;;;63.60;8.18;;;;;;;;;;5073178;28;20208;-68
2023/01/30 09:40:07;;;;;;;65.38;8.93;;;;;;;;;;5072181;28;20586;-68
2023/01/30 09:42:53;;;;;;;66.05;9.50;;;;;;;;;;5072777;28;20218;-68
2023/01/30 09:45:37;;;;;;;64.50;7.78;;;;;;;;;;5073017;28;20204;-67
2023/01/30 09:48:08;;;;;;;65.20;9.75;;;;;;;;;;5072823;28;20210;-68
2023/01/30 09:50:45;;;;;;;63.55;8.23;;;;;;;;;;5072157;28;20671;-69
2023/01/30 09:53:14;;;;;;;63.53;8.50;;;;;;;;;;5072522;28;20224;-68
2023/01/30 09:55:42;;;;;;;70.38;9.45;;;;;;;;;;5072805;28;20207;-68
2023/01/30 09:58:14;;;;;;;63.13;7.47;;;;;;;;;;5072754;28;20204;-68
2023/01/30 10:00:42;;;;;;;65.40;8.10;;;;;;;;;;5071863;28;20675;-68
2023/01/30 10:03:11;;;;;;;64.03;7.97;;;;;;;;;;5072409;28;20225;-70
2023/01/30 10:05:43;;;;;;;66.80;8.88;;;;;;;;;;5072559;28;20234;-68
2023/01/30 10:08:35;;;;;;;65.10;9.23;;;;;;;;;;5072589;28;20594;-67
2023/01/30 10:11:06;;;;;;;68.50;7.93;;;;;;;;;;5057140;28;20214;-69
2023/01/30 10:13:42;;;;;;;63.70;7.60;;;;;;;;;;5072287;28;20279;-69
2023/01/30 10:16:12;;;;;;;63.03;7.45;;;;;;;;;;5072282;28;20246;-69
2023/01/30 10:18:47;;;;;;;64.18;6.93;;;;;;;;;;5071619;28;20335;-69
2023/01/30 10:21:21;;;;;;;64.63;7.32;;;;;;;;;;5072437;28;20223;-69
2023/01/30 10:23:56;;;;;;;63.13;7.25;;;;;;;;;;5072110;28;20239;-69
2023/01/30 10:26:25;;;;;;;64.45;7.20;;;;;;;;;;5071774;28;20211;-69
2023/01/30 10:28:55;;;;;;;61.97;6.70;;;;;;;;;;5071402;28;20205;-69
2023/01/30 10:31:25;;;;;;;64.45;6.82;;;;;;;;;;5072325;28;20215;-69
2023/01/30 10:33:57;;;;;;;63.60;6.95;;;;;;;;;;5072266;28;20232;-68
2023/01/30 10:36:28;;;;;;;62.78;7.18;;;;;;;;;;5072171;28;20651;-69
2023/01/30 10:38:57;;;;;;;61.15;6.10;;;;;;;;;;5070352;28;20205;-69
2023/01/30 10:41:26;;;;;;;61.78;6.32;;;;;;;;;;5071492;28;20201;-70
2023/01/30 10:43:57;;;;;;;61.28;6.13;;;;;;;;;;5071824;28;20717;-69
2023/01/30 10:46:32;;;;;;;61.70;5.55;;;;;;;;;;5071934;28;20205;-69
2023/01/30 10:49:00;;;;;;;64.05;6.00;;;;;;;;;;5071177;28;20210;-69
2023/01/30 10:51:34;;;;;;;60.85;5.30;;;;;;;;;;5072270;28;20653;-69
2023/01/30 10:54:02;;;;;;;62.60;6.10;;;;;;;;;;5071260;28;20229;-69
2023/01/30 10:56:34;;;;;;;60.40;4.50;;;;;;;;;;5071330;28;20585;-69
2023/01/30 10:59:07;;;;;;;59.75;4.95;;;;;;;;;;5070915;28;20251;-69
2023/01/30 11:01:38;;;;;;;60.00;5.15;;;;;;;;;;5071523;28;20205;-68
2023/01/30 11:04:13;;;;;;;60.28;5.50;;;;;;;;;;5071581;28;20225;-69
2023/01/30 11:06:42;;;;;;;61.38;5.57;;;;;;;;;;5071904;28;20287;-69
2023/01/30 11:09:09;;;;;;;61.65;5.72;;;;;;;;;;5070688;28;20582;-69
2023/01/30 11:11:43;;;;;;;62.33;5.13;;;;;;;;;;5071663;28;20216;-69
2023/01/30 11:14:11;;;;;;;59.72;4.75;;;;;;;;;;5071547;28;20228;-69
2023/01/30 11:16:43;;;;;;;59.67;4.72;;;;;;;;;;5071480;28;20220;-69
2023/01/30 11:19:11;;;;;;;61.72;5.50;;;;;;;;;;5070971;28;20209;-69
2023/01/30 11:21:41;;;;;;;60.90;4.10;;;;;;;;;;5071844;28;20205;-69
2023/01/30 11:24:16;;;;;;;60.97;4.68;;;;;;;;;;5071507;28;20264;-68
2023/01/30 11:26:43;;;;;;;60.88;4.43;;;;;;;;;;5071468;28;20265;-69
2023/01/30 11:29:24;;;;;;;58.97;3.80;;;;;;;;;;5070724;28;20647;-69
2023/01/30 11:31:52;;;;;;;58.97;4.07;;;;;;;;;;5071373;28;20207;-69
2023/01/30 11:34:20;;;;;;;58.90;4.05;;;;;;;;;;5071315;28;20605;-69
2023/01/30 11:36:47;;;;;;;59.17;3.50;;;;;;;;;;5071525;28;20207;-68
2023/01/30 11:39:23;;;;;;;59.03;4.22;;;;;;;;;;5070627;28;20220;-69
2023/01/30 11:42:02;;;;;;;58.20;4.15;;;;;;;;;;5071593;28;20205;-69
2023/01/30 11:44:30;;;;;;;59.00;4.55;;;;;;;;;;5071297;28;20228;-68
2023/01/30 11:46:59;;;;;;;59.05;4.15;;;;;;;;;;5071415;28;20212;-68
2023/01/30 11:49:29;;;;;;;58.97;4.40;;;;;;;;;;5070577;28;20228;-69
2023/01/30 11:51:56;;;;;;;59.17;4.55;;;;;;;;;;5074037;28;20208;-69
2023/01/30 11:54:29;;;;;;;59.47;4.75;;;;;;;;;;5075294;28;20232;-68
2023/01/30 11:56:57;;;;;;;60.42;5.40;;;;;;;;;;5075247;28;20213;-69
2023/01/30 11:59:26;;;;;;;60.63;5.38;;;;;;;;;;5074401;28;20208;-69
2023/01/30 12:01:53;;;;;;;60.38;5.28;;;;;;;;;;5075022;28;20576;-69
2023/01/30 12:04:23;;;;;;;60.65;5.53;;;;;;;;;;5074768;28;20306;-69
2023/01/30 12:07:04;;;;;;;61.13;6.50;;;;;;;;;;5074776;28;20208;-68
2023/01/30 12:09:34;;;;;;;62.08;5.90;;;;;;;;;;5074205;28;20205;-69
2023/01/30 12:12:02;;;;;;;63.20;6.00;;;;;;;;;;5074939;28;20584;-70
2023/01/30 12:14:36;;;;;;;61.92;6.47;;;;;;;;;;5074543;28;20780;-69
2023/01/30 12:17:08;;;;;;;63.55;6.97;;;;;;;;;;5074390;28;20204;-68
2023/01/30 12:19:40;;;;;;;61.47;6.50;;;;;;;;;;5074050;28;20205;-69
2023/01/30 12:22:12;;;;;;;61.60;5.88;;;;;;;;;;5075029;28;20205;-69
2023/01/30 12:24:42;;;;;;;61.70;6.35;;;;;;;;;;5074491;28;20743;-70
2023/01/30 12:27:14;;;;;;;63.72;7.05;;;;;;;;;;5074462;28;20205;-69
2023/01/30 12:29:47;;;;;;;61.05;5.70;;;;;;;;;;5073698;28;20665;-69
2023/01/30 12:32:16;;;;;;;61.95;6.75;;;;;;;;;;5074441;28;20678;-69
2023/01/30 12:34:44;;;;;;;63.10;7.10;;;;;;;;;;5074757;28;20232;-70
2023/01/30 12:37:22;;;;;;;63.15;7.93;;;;;;;;;;5074538;28;20213;-69
2023/01/30 12:39:56;;;;;;;62.28;6.97;;;;;;;;;;5073533;28;20644;-69
2023/01/30 12:42:30;;;;;;;61.05;5.70;;;;;;;;;;5074467;28;20236;-68
2023/01/30 12:45:02;;;;;;;61.92;6.88;;;;;;;;;;5074367;28;20203;-68
2023/01/30 12:47:35;;;;;;;62.38;6.88;;;;;;;;;;5074175;28;20263;-68
2023/01/30 12:50:07;;;;;;;62.70;7.80;;;;;;;;;;5073377;28;20212;-68
2023/01/30 12:52:42;;;;;;;64.35;7.53;;;;;;;;;;5074256;28;20207;-69
2023/01/30 12:55:20;;;;;;;64.45;7.97;;;;;;;;;;5074140;28;20274;-68
2023/01/30 12:57:49;;;;;;;63.42;7.20;;;;;;;;;;5074114;28;20209;-68
2023/01/30 13:00:25;;;;;;;63.35;6.43;;;;;;;;;;5073234;28;20212;-68
2023/01/30 13:02:59;;;;;;;62.22;6.72;;;;;;;;;;5073572;28;20239;-68
2023/01/30 13:05:32;;;;;;;63.80;6.78;;;;;;;;;;5074027;28;20245;-67
2023/01/30 13:08:15;;;;;;;62.03;6.63;;;;;;;;;;5073716;28;20201;-68
2023/01/30 13:10:46;;;;;;;62.70;7.80;;;;;;;;;;5072899;28;20579;-67
2023/01/30 13:13:18;;;;;;;63.70;7.03;;;;;;;;;;5073541;28;20236;-68
2023/01/30 13:15:49;;;;;;;63.05;7.60;;;;;;;;;;5073739;28;20300;-68
2023/01/30 13:18:18;;;;;;;65.53;7.60;;;;;;;;;;5073627;28;20208;-68
2023/01/30 13:20:52;;;;;;;64.43;7.88;;;;;;;;;;5072979;28;20215;-68
2023/01/30 13:23:20;;;;;;;69.68;8.20;;;;;;;;;;5073356;28;20595;-68
2023/01/30 13:25:55;;;;;;;64.13;7.88;;;;;;;;;;5073446;28;20498;-68
2023/01/30 13:28:25;;;;;;;63.90;8.02;;;;;;;;;;5073259;28;20216;-67
2023/01/30 13:30:52;;;;;;;62.47;7.35;;;;;;;;;;5072797;28;20275;-67
2023/01/30 13:33:21;;;;;;;66.45;8.75;;;;;;;;;;5073306;28;20228;-68
2023/01/30 13:35:49;;;;;;;64.00;8.68;;;;;;;;;;5073319;28;20418;-68
2023/01/30 13:38:19;;;;;;;66.03;8.65;;;;;;;;;;5073005;28;20219;-67
2023/01/30 13:40:48;;;;;;;68.55;8.50;;;;;;;;;;5072786;28;20303;-68
2023/01/30 13:43:20;;;;;;;67.53;8.30;;;;;;;;;;5073126;28;20221;-67
2023/01/30 13:45:48;;;;;;;63.17;7.55;;;;;;;;;;5073118;28;20201;-68
2023/01/30 13:48:25;;;;;;;62.40;7.45;;;;;;;;;;5072966;28;20222;-68
2023/01/30 13:50:59;;;;;;;60.90;6.60;;;;;;;;;;5072286;28;20215;-68
2023/01/30 13:53:30;;;;;;;67.60;7.88;;;;;;;;;;5073016;28;20612;-68
2023/01/30 13:55:58;;;;;;;64.30;8.45;;;;;;;;;;5073026;28;20226;-68
2023/01/30 13:58:42;;;;;;;63.22;7.43;;;;;;;;;;5072760;28;20295;-68
2023/01/30 14:01:10;;;;;;;60.28;5.68;;;;;;;;;;5072547;28;20696;-67
2023/01/30 14:03:37;;;;;;;61.75;6.18;;;;;;;;;;5072713;28;20279;-67
2023/01/30 14:06:22;;;;;;;61.20;5.20;;;;;;;;;;5072734;28;20227;-68
2023/01/30 14:08:51;;;;;;;59.33;5.00;;;;;;;;;;5071948;28;20213;-68
2023/01/30 14:11:30;;;;;;;59.22;4.28;;;;;;;;;;5072437;28;20700;-68
2023/01/30 14:14:01;;;;;;;59.25;4.80;;;;;;;;;;5072038;28;20229;-68
2023/01/30 14:16:40;;;;;;;60.33;4.53;;;;;;;;;;5072662;28;20225;-68
2023/01/30 14:19:20;;;;;;;59.50;4.55;;;;;;;;;;5071656;28;20672;-68
2023/01/30 14:21:55;;;;;;;58.80;4.90;;;;;;;;;;5072311;28;20201;-68
2023/01/30 14:24:23;;;;;;;59.40;5.40;;;;;;;;;;5072216;28;20232;-68
2023/01/30 14:27:00;;;;;;;61.92;5.43;;;;;;;;;;5072303;28;20201;-68
2023/01/30 14:29:48;;;;;;;63.35;4.60;;;;;;;;;;5071327;28;20220;-68
2023/01/30 14:32:30;;;;;;;59.90;5.10;;;;;;;;;;5067146;28;20208;-68
2023/01/30 14:35:20;;;;;;;60.10;5.00;;;;;;;;;;5071810;28;20232;-69
2023/01/30 14:37:50;;;;;;;59.97;4.80;;;;;;;;;;5072278;28;20205;-67
2023/01/30 14:40:31;;;;;;;59.33;4.70;;;;;;;;;;5071722;28;20258;-68
2023/01/30 14:43:18;;;;;;;60.53;4.55;;;;;;;;;;5071853;28;20713;-67
2023/01/30 14:45:46;;;;;;;59.45;5.00;;;;;;;;;;5072118;28;20308;-69